首页
METAR-TAF:

METAR-TAF

机场 :

劳德代尔堡-好莱坞国际机场

劳德代尔堡, 佛罗里达州, 美国

纬度: 26-04-05N, 经度: 080-09-09W, 海拔: 3米

当前天气观测

该预报发布于1小时和1分钟前的13:53 UTC
风速11节,风向东转东北,有时为19节阵风
温度 22°C
湿度 53%
气压 1023 hPa
能見度: 16.1公里
多云层高于4900英尺

METAR: KFLL 231353Z 06011G19KT 10SM BKN049 22/12 A3020 RMK AO2 SLP227 T02170122

时间: 09:54 (14:54 UTC)

预报

该预报发布于3小时和26分钟前的11:28 UTC
预报有效从23日的 12点(UTC)到 24日的 18点(UTC)
风速11节,风向东转东北
能見度: 10公里
散云层高于3000英尺
多云层高于5000英尺
附近有阵雨
从 23日的 1400点(UTC)
风速13节,风向
能見度: 10公里
散云层高于3500英尺
从 24日的 0100点(UTC)
风速6节,风向
能見度: 10公里
散云层高于2500英尺
从 24日的 1500点(UTC)
风速10节,风向东南
能見度: 10公里
散云层高于2000英尺
多云层高于5000英尺

TAF: KFLL 231128Z 2312/2418 06011KT P6SM VCSH SCT030 BKN050 FM231400 08013KT P6SM SCT035 FM240100 10006KT P6SM SCT025 FM241500 13010KT P6SM SCT020 BKN050

超过4000个机场的气象观测和天气预报(METAR&TAF报告)。

可查询的气象台以黄色和红色小点在地图上表示。

将鼠标移到小点上方,可查看气象台名称。

然后点击查看天气观测和预报。

如需切换地图:点击带黑十字的绿色按钮放大地图;点击带横线的绿色按钮缩小地图;或者点击绿色箭头查看邻近地区的地图。


METAR-TAF: